M/V Port Eads — WDD9878 — position and weather

sailwx.info

Track history (hours):
 
Tides and Currents Weather Stations Pressure Air Temp Water Temp Dewpoint Dewpoint Depression Visibility Wind Speed Wind Dir Waves Ship Positions

M/V Port Eads

Owner: Port Eads, LLC, Houma, LA. More information available from US FCC via Universal Licensing System and Coast Guard Vessel Documentation Center.

Last reported at 2018-Jun-13 23:12 UTC. Time now 2018-Jun-19 01:17 UTC.
Position N 25°34' W 080°05'.

Length 47 m.

Type: Cargo ship. MMSI: 367317530.

Date/timePositionNaut miles runAvg speedWind from/ knotsBaromVisibWave heightAir tempDewpointWater temp
2018-Jun-13 23:12N 25°34' W 080°05'2 8.9
2018-Jun-13 22:58N 25°36' W 080°05'4 9.4
2018-Jun-13 22:30N 25°40' W 080°05'5 9.1
2018-Jun-13 22:01N 25°45' W 080°05'5 9.1
2018-Jun-13 21:30N 25°49' W 080°04'5 9.1
2018-Jun-13 21:00N 25°54' W 080°04'4 8.9
2018-Jun-13 20:30N 25°58' W 080°04'4 8.6
2018-Jun-13 20:00N 26°02' W 080°04'4 8.7
2018-Jun-13 19:30N 26°07' W 080°03'4 8.6
2018-Jun-13 19:00N 26°11' W 080°03'5 8.7
2018-Jun-13 18:24N 26°16' W 080°02'34 8.8
2018-Jun-13 14:29N 26°50' W 080°00'4 6.9
2018-Jun-13 13:57N 26°54' W 080°01'4 8.1
2018-Jun-13 13:30N 26°58' W 080°02'295 8.8
2018-Jun-12 04:01N 31°49' W 080°50'1 8.7
2018-Jun-12 03:57N 31°50' W 080°50'4 8.6
2018-Jun-12 03:30N 31°52' W 080°47'4 8.4
2018-Jun-12 03:00N 31°55' W 080°43'4 8.2
2018-Jun-12 02:30N 31°58' W 080°40'251 8.2
2018-Jun-10 20:08N 34°34' W 076°45'1 9.2
2018-Jun-10 20:00N 34°34' W 076°44'5 9.3
2018-Jun-10 19:30N 34°35' W 076°38'4 8.7
2018-Jun-10 19:00N 34°32' W 076°34'510.4
2018-Jun-10 18:30N 34°27' W 076°31'6 8.5
2018-Jun-10 17:50N 34°28' W 076°24'211 8.1
2018-Jun-09 15:48N 37°59' W 076°17'3 9.5
2018-Jun-09 15:30N 38°01' W 076°20'10 9.4
2018-Jun-09 14:30N 38°08' W 076°28'2 0.1
2018-Jun-08 12:04N 38°09' W 076°30'0 0.0
2018-Jun-08 06:52N 38°09' W 076°30'0 0.0
2018-Jun-08 06:28N 38°09' W 076°30'1 0.1
2018-Jun-07 22:51N 38°08' W 076°30'3 9.5
2018-Jun-07 22:30N 38°06' W 076°26'510.6
2018-Jun-07 22:00N 38°02' W 076°22'  
Track history (hours):
 
Tides and Currents Weather Stations Pressure Air Temp Water Temp Dewpoint Dewpoint Depression Visibility Wind Speed Wind Dir Waves Ship Positions

M/V Port Eads

Owner: Port Eads, LLC, Houma, LA. More information available from US FCC via Universal Licensing System and Coast Guard Vessel Documentation Center.

Last reported at 2018-Jun-13 23:12 UTC. Time now 2018-Jun-19 01:17 UTC.
Position N 25°34' W 080°05'.

Length 47 m.

Type: Cargo ship. MMSI: 367317530.

Date/timePositionNaut miles runAvg speedWind from/ knotsBaromVisibWave heightAir tempDewpointWater temp
2018-Jun-13 23:12N 25°34' W 080°05'2 8.9
2018-Jun-13 22:58N 25°36' W 080°05'4 9.4
2018-Jun-13 22:30N 25°40' W 080°05'5 9.1
2018-Jun-13 22:01N 25°45' W 080°05'5 9.1
2018-Jun-13 21:30N 25°49' W 080°04'5 9.1
2018-Jun-13 21:00N 25°54' W 080°04'4 8.9
2018-Jun-13 20:30N 25°58' W 080°04'4 8.6
2018-Jun-13 20:00N 26°02' W 080°04'4 8.7
2018-Jun-13 19:30N 26°07' W 080°03'4 8.6
2018-Jun-13 19:00N 26°11' W 080°03'5 8.7
2018-Jun-13 18:24N 26°16' W 080°02'34 8.8
2018-Jun-13 14:29N 26°50' W 080°00'4 6.9
2018-Jun-13 13:57N 26°54' W 080°01'4 8.1
2018-Jun-13 13:30N 26°58' W 080°02'295 8.8
2018-Jun-12 04:01N 31°49' W 080°50'1 8.7
2018-Jun-12 03:57N 31°50' W 080°50'4 8.6
2018-Jun-12 03:30N 31°52' W 080°47'4 8.4
2018-Jun-12 03:00N 31°55' W 080°43'4 8.2
2018-Jun-12 02:30N 31°58' W 080°40'251 8.2
2018-Jun-10 20:08N 34°34' W 076°45'1 9.2
2018-Jun-10 20:00N 34°34' W 076°44'5 9.3
2018-Jun-10 19:30N 34°35' W 076°38'4 8.7
2018-Jun-10 19:00N 34°32' W 076°34'510.4
2018-Jun-10 18:30N 34°27' W 076°31'6 8.5
2018-Jun-10 17:50N 34°28' W 076°24'211 8.1
2018-Jun-09 15:48N 37°59' W 076°17'3 9.5
2018-Jun-09 15:30N 38°01' W 076°20'10 9.4
2018-Jun-09 14:30N 38°08' W 076°28'2 0.1
2018-Jun-08 12:04N 38°09' W 076°30'0 0.0
2018-Jun-08 06:52N 38°09' W 076°30'0 0.0
2018-Jun-08 06:28N 38°09' W 076°30'1 0.1
2018-Jun-07 22:51N 38°08' W 076°30'3 9.5
2018-Jun-07 22:30N 38°06' W 076°26'510.6
2018-Jun-07 22:00N 38°02' W 076°22'  

Dump ship's entire track history